createdAt,value
2024-05-09T00:01:44.078Z,35.06
2024-05-09T00:04:13.857Z,35.08
2024-05-09T00:06:43.770Z,35.03
2024-05-09T00:09:13.494Z,34.59
2024-05-09T00:11:43.301Z,34.74
2024-05-09T00:14:13.577Z,34.52
2024-05-09T00:16:43.886Z,34.37
2024-05-09T00:19:13.814Z,34.47
2024-05-09T00:21:46.574Z,34.18
2024-05-09T00:24:16.326Z,34.49
2024-05-09T00:26:46.123Z,34.09
2024-05-09T00:29:16.144Z,34.25
2024-05-09T00:31:46.386Z,34.17
2024-05-09T00:34:16.211Z,34.08
2024-05-09T00:36:46.056Z,34.09
2024-05-09T00:39:15.828Z,34.00
2024-05-09T00:41:45.701Z,33.95
2024-05-09T00:44:15.585Z,34.07
2024-05-09T00:46:46.231Z,33.74
2024-05-09T00:49:16.622Z,33.44
2024-05-09T00:51:46.502Z,33.25
2024-05-09T00:54:16.372Z,33.50
2024-05-09T00:56:46.108Z,33.58
2024-05-09T00:59:15.876Z,33.31
2024-05-09T01:01:46.295Z,33.15
2024-05-09T01:04:16.634Z,32.76
2024-05-09T01:06:46.468Z,32.87
2024-05-09T01:09:16.275Z,32.64
2024-05-09T01:11:46.275Z,32.86
2024-05-09T01:14:16.266Z,32.78
2024-05-09T01:16:47.152Z,32.34
2024-05-09T01:19:28.440Z,32.55
2024-05-09T01:21:58.813Z,32.01
2024-05-09T01:24:28.622Z,32.07
2024-05-09T01:26:58.419Z,32.62
2024-05-09T01:29:28.438Z,32.30
2024-05-09T01:32:00.742Z,32.01
2024-05-09T01:34:30.695Z,32.33
2024-05-09T01:37:00.754Z,32.04
2024-05-09T01:39:30.619Z,32.06
2024-05-09T01:42:00.615Z,31.80
2024-05-09T01:44:30.422Z,31.73
2024-05-09T01:47:00.247Z,31.79
2024-05-09T01:49:30.140Z,31.81
2024-05-09T01:52:00.168Z,32.11
2024-05-09T01:54:29.996Z,31.80
2024-05-09T01:56:59.727Z,31.99
2024-05-09T01:59:29.530Z,32.27
2024-05-09T02:01:59.661Z,32.08
2024-05-09T02:04:30.245Z,32.14
2024-05-09T02:07:00.808Z,31.93
2024-05-09T02:09:30.628Z,31.85
2024-05-09T02:12:00.663Z,31.93
2024-05-09T02:14:30.743Z,32.12
2024-05-09T02:17:00.802Z,32.14
2024-05-09T02:19:31.275Z,31.83
2024-05-09T02:22:01.469Z,32.06
2024-05-09T02:24:31.265Z,32.33
2024-05-09T02:27:01.040Z,31.96
2024-05-09T02:29:30.865Z,32.31
2024-05-09T02:32:00.818Z,32.18
2024-05-09T02:34:30.742Z,32.32
2024-05-09T02:37:00.592Z,31.97
2024-05-09T02:39:30.470Z,31.83
2024-05-09T02:42:00.265Z,31.90
2024-05-09T02:44:30.149Z,31.60
2024-05-09T02:46:59.962Z,31.90
2024-05-09T02:49:29.963Z,31.80
2024-05-09T02:51:59.806Z,31.14
2024-05-09T02:54:29.599Z,31.00
2024-05-09T02:56:59.357Z,31.42
2024-05-09T02:59:29.198Z,30.88
2024-05-09T03:01:59.088Z,30.97
2024-05-09T03:04:29.238Z,30.81
2024-05-09T03:06:59.525Z,30.91
2024-05-09T03:09:29.640Z,30.82
2024-05-09T03:11:59.627Z,31.19
2024-05-09T03:14:30.257Z,30.44
2024-05-09T03:17:00.114Z,30.65
2024-05-09T03:19:29.975Z,30.65
2024-05-09T03:22:00.744Z,30.44
2024-05-09T03:24:30.541Z,30.71
2024-05-09T03:27:00.240Z,30.78
2024-05-09T03:29:30.088Z,30.99
2024-05-09T03:32:00.708Z,30.63
2024-05-09T03:34:30.617Z,30.40
2024-05-09T03:37:00.388Z,30.50
2024-05-09T03:39:30.184Z,29.75
2024-05-09T03:41:59.943Z,29.38
2024-05-09T03:44:29.782Z,29.97
2024-05-09T03:46:59.690Z,29.86
2024-05-09T03:49:29.513Z,29.82
2024-05-09T03:51:59.339Z,30.10
2024-05-09T03:54:29.279Z,29.85
2024-05-09T03:56:59.104Z,29.46
2024-05-09T03:59:29.311Z,29.79
2024-05-09T04:01:59.289Z,29.43
2024-05-09T04:04:29.312Z,30.14
2024-05-09T04:06:59.191Z,30.12
2024-05-09T04:09:31.997Z,30.03
2024-05-09T04:12:02.128Z,29.99
2024-05-09T04:14:32.017Z,29.97
2024-05-09T04:17:01.982Z,29.85
2024-05-09T04:19:32.552Z,30.15
2024-05-09T04:22:02.685Z,29.92
2024-05-09T04:24:32.904Z,29.71
2024-05-09T04:27:02.720Z,29.30
2024-05-09T04:29:32.690Z,29.47
2024-05-09T04:32:02.764Z,29.53
2024-05-09T04:34:32.687Z,29.42
2024-05-09T04:37:02.573Z,29.25
2024-05-09T04:39:32.749Z,29.30
2024-05-09T04:42:02.983Z,29.76
2024-05-09T04:44:32.906Z,29.62
2024-05-09T04:47:03.040Z,29.55
2024-05-09T04:49:32.905Z,29.27
2024-05-09T04:52:02.763Z,29.74
2024-05-09T04:54:36.296Z,29.94
2024-05-09T04:57:06.095Z,30.18
2024-05-09T04:59:35.978Z,29.90
2024-05-09T05:02:06.050Z,29.84
2024-05-09T05:04:36.300Z,29.79
2024-05-09T05:07:06.354Z,29.95
2024-05-09T05:09:36.225Z,29.80
2024-05-09T05:12:25.876Z,30.37
2024-05-09T05:14:56.183Z,30.27
2024-05-09T05:17:26.032Z,30.26
2024-05-09T05:19:56.413Z,29.95
2024-05-09T05:22:26.167Z,30.22
2024-05-09T05:24:55.874Z,30.21
2024-05-09T05:27:25.718Z,30.09
2024-05-09T05:29:55.494Z,29.88
2024-05-09T05:32:25.682Z,29.78
2024-05-09T05:34:55.695Z,30.06
2024-05-09T05:37:26.418Z,30.03
2024-05-09T05:39:56.238Z,30.25
2024-05-09T05:42:26.328Z,29.90
2024-05-09T05:44:56.906Z,29.94
2024-05-09T05:47:26.879Z,29.95
2024-05-09T05:49:56.693Z,30.12
2024-05-09T05:52:27.268Z,30.22
2024-05-09T05:54:57.313Z,30.17
2024-05-09T05:57:27.223Z,30.42
2024-05-09T05:59:57.008Z,30.63
2024-05-09T06:02:26.982Z,30.22
2024-05-09T06:04:57.687Z,30.52
2024-05-09T06:07:27.639Z,30.10
2024-05-09T06:09:58.734Z,30.01
2024-05-09T06:12:28.758Z,30.29
2024-05-09T06:14:58.714Z,29.96
2024-05-09T06:17:29.306Z,29.66
2024-05-09T06:19:59.310Z,29.99
2024-05-09T06:22:29.076Z,29.72
2024-05-09T06:24:59.049Z,29.61
2024-05-09T06:27:28.850Z,29.37
2024-05-09T06:29:58.597Z,29.07
2024-05-09T06:32:28.948Z,29.24
2024-05-09T06:34:58.848Z,29.19
2024-05-09T06:37:28.605Z,29.32
2024-05-09T06:39:59.047Z,29.87
2024-05-09T06:42:28.812Z,29.37
2024-05-09T06:44:58.644Z,29.36
2024-05-09T06:47:28.630Z,29.40
2024-05-09T06:49:58.560Z,29.57
2024-05-09T06:52:28.710Z,29.83
2024-05-09T06:54:58.623Z,29.63
2024-05-09T06:57:31.403Z,29.65
2024-05-09T07:00:02.272Z,29.29
2024-05-09T07:02:33.980Z,29.58
2024-05-09T07:05:04.350Z,29.77
2024-05-09T07:07:34.304Z,29.92
2024-05-09T07:10:06.270Z,29.38
2024-05-09T07:12:37.757Z,29.56
2024-05-09T07:15:07.837Z,29.81
2024-05-09T07:17:37.770Z,29.61
2024-05-09T07:20:11.830Z,29.11
2024-05-09T07:22:45.861Z,29.11
2024-05-09T07:25:15.698Z,29.29
2024-05-09T07:27:45.392Z,29.66
2024-05-09T07:30:22.940Z,29.05
2024-05-09T07:32:58.200Z,29.53
2024-05-09T07:35:28.274Z,29.22
2024-05-09T07:37:58.250Z,29.67
2024-05-09T07:40:34.784Z,29.74
2024-05-09T07:43:07.020Z,29.17
2024-05-09T07:45:48.369Z,29.97
2024-05-09T07:52:45.935Z,30.96
2024-05-09T07:53:51.015Z,31.76
2024-05-09T07:56:24.367Z,31.51
2024-05-09T07:58:55.761Z,31.74
2024-05-09T08:01:27.683Z,31.07
2024-05-09T08:03:58.027Z,31.34
2024-05-09T08:06:29.011Z,30.98
2024-05-09T08:09:05.291Z,30.84
2024-05-09T08:11:38.537Z,30.68
2024-05-09T08:14:08.273Z,30.71
2024-05-09T08:16:38.048Z,30.37
2024-05-09T08:19:08.514Z,30.25
2024-05-09T08:21:38.733Z,29.92
2024-05-09T08:24:08.728Z,29.91
2024-05-09T08:26:38.554Z,29.91
2024-05-09T08:29:08.306Z,29.41
2024-05-09T08:31:41.195Z,29.35
2024-05-09T08:34:15.081Z,29.28
2024-05-09T08:36:45.248Z,29.17
2024-05-09T08:39:15.199Z,29.48
2024-05-09T08:41:45.198Z,29.15
2024-05-09T08:44:15.014Z,29.49
2024-05-09T08:46:45.005Z,28.85
2024-05-09T08:49:14.910Z,29.05
2024-05-09T08:51:45.397Z,28.88
2024-05-09T08:54:15.282Z,29.02
2024-05-09T08:56:48.720Z,28.81
2024-05-09T08:59:26.347Z,28.95
2024-05-09T09:01:56.497Z,29.29
2024-05-09T09:04:26.546Z,28.86
2024-05-09T09:06:58.140Z,28.98
2024-05-09T09:09:28.644Z,29.35
2024-05-09T09:11:59.536Z,29.31
2024-05-09T09:14:29.289Z,28.86
2024-05-09T09:17:01.758Z,28.86
2024-05-09T09:19:31.655Z,29.09
2024-05-09T09:22:01.566Z,29.18
2024-05-09T09:24:31.327Z,29.36
2024-05-09T09:27:01.109Z,29.42
2024-05-09T09:29:31.525Z,28.98
2024-05-09T09:32:10.496Z,29.11
2024-05-09T09:34:40.419Z,29.60
2024-05-09T09:37:11.752Z,29.13
2024-05-09T09:39:43.548Z,29.18
2024-05-09T09:42:13.638Z,29.04
2024-05-09T09:44:47.842Z,29.13
2024-05-09T09:47:20.997Z,29.47
2024-05-09T09:49:50.805Z,29.49
2024-05-09T09:52:20.607Z,29.31
2024-05-09T09:54:50.871Z,29.24
2024-05-09T09:57:21.516Z,29.74
2024-05-09T09:59:51.447Z,29.65
2024-05-09T10:02:21.518Z,29.67
2024-05-09T10:04:51.854Z,29.53
2024-05-09T10:07:22.486Z,29.73
2024-05-09T10:09:56.972Z,30.06
2024-05-09T10:12:27.357Z,30.10
2024-05-09T10:14:57.294Z,29.91
2024-05-09T10:17:27.134Z,29.92
2024-05-09T10:20:14.900Z,29.94
2024-05-09T10:22:52.086Z,29.70
2024-05-09T10:25:22.093Z,29.86
2024-05-09T10:27:57.535Z,30.02
2024-05-09T10:30:34.150Z,30.71
2024-05-09T10:33:06.149Z,30.18
2024-05-09T10:35:35.992Z,30.09
2024-05-09T10:38:08.960Z,30.30
2024-05-09T10:40:38.887Z,30.81
2024-05-09T10:43:08.763Z,30.82
2024-05-09T10:45:38.705Z,30.86
2024-05-09T10:48:09.087Z,31.14
2024-05-09T10:50:41.768Z,31.38
2024-05-09T10:53:11.504Z,31.02
2024-05-09T10:55:41.257Z,31.19
2024-05-09T10:58:19.842Z,31.15
2024-05-09T11:00:49.760Z,31.11
2024-05-09T11:03:23.514Z,31.65
2024-05-09T11:05:57.072Z,31.62
2024-05-09T11:08:27.380Z,31.23
2024-05-09T11:10:57.595Z,31.25
2024-05-09T11:13:35.568Z,31.20
2024-05-09T11:16:06.308Z,31.43
2024-05-09T11:18:39.032Z,31.20
2024-05-09T11:21:14.588Z,31.78
2024-05-09T11:23:44.335Z,31.84
2024-05-09T11:26:16.812Z,31.52
2024-05-09T11:28:47.127Z,31.81
2024-05-09T11:31:17.179Z,32.08
2024-05-09T11:33:50.572Z,32.11
2024-05-09T11:36:20.392Z,32.16
2024-05-09T11:38:50.227Z,32.28
2024-05-09T11:41:20.400Z,32.10
2024-05-09T11:43:50.110Z,32.34
2024-05-09T11:46:20.242Z,32.82
2024-05-09T11:48:50.124Z,32.23
2024-05-09T11:51:20.032Z,32.51
2024-05-09T11:53:50.333Z,32.63
2024-05-09T11:56:20.629Z,32.90
2024-05-09T11:58:51.156Z,32.76
2024-05-09T12:01:27.549Z,32.79
2024-05-09T12:03:58.067Z,33.51
2024-05-09T12:06:28.142Z,32.92
2024-05-09T12:08:58.553Z,33.20
2024-05-09T12:11:28.637Z,33.60
2024-05-09T12:13:59.099Z,33.26
2024-05-09T12:16:29.212Z,33.58
2024-05-09T12:18:59.140Z,33.98
2024-05-09T12:21:28.968Z,33.92
2024-05-09T12:23:58.786Z,33.48
2024-05-09T12:26:29.195Z,33.75
2024-05-09T12:28:58.978Z,34.21
2024-05-09T12:31:28.854Z,34.13
2024-05-09T12:33:58.837Z,33.80
2024-05-09T12:36:32.740Z,33.99
2024-05-09T12:39:02.680Z,34.40
2024-05-09T12:41:32.398Z,34.49
2024-05-09T12:44:02.144Z,34.50
2024-05-09T12:46:33.452Z,34.38
2024-05-09T12:49:03.597Z,34.58
2024-05-09T12:51:33.990Z,34.37
2024-05-09T12:54:04.060Z,34.82
2024-05-09T12:56:35.331Z,35.06
2024-05-09T12:59:05.198Z,34.65
2024-05-09T13:01:35.199Z,34.48
2024-05-09T13:04:05.338Z,34.99
2024-05-09T13:06:35.155Z,34.92
2024-05-09T13:09:04.941Z,35.54
2024-05-09T13:11:34.755Z,34.90
2024-05-09T13:14:04.532Z,35.26
2024-05-09T13:16:34.969Z,35.74
2024-05-09T13:19:04.850Z,35.60
2024-05-09T13:21:34.621Z,35.72
2024-05-09T13:24:04.424Z,35.64
2024-05-09T13:26:34.170Z,35.80
2024-05-09T13:29:03.925Z,36.04
2024-05-09T13:31:33.800Z,35.75
2024-05-09T13:34:04.157Z,35.61
2024-05-09T13:36:34.586Z,35.90
2024-05-09T13:39:05.394Z,36.15
2024-05-09T13:41:35.594Z,36.12
2024-05-09T13:44:06.366Z,36.59
2024-05-09T13:46:36.446Z,35.91
2024-05-09T13:49:07.717Z,36.53
2024-05-09T13:51:39.698Z,36.21
2024-05-09T13:54:10.127Z,36.42
2024-05-09T13:56:40.407Z,36.30
2024-05-09T13:59:10.737Z,36.16
2024-05-09T14:01:41.052Z,36.83
2024-05-09T14:04:11.645Z,36.83
2024-05-09T14:06:42.182Z,36.96
2024-05-09T14:09:12.015Z,36.58
2024-05-09T14:11:41.872Z,36.66
2024-05-09T14:14:11.628Z,36.63
2024-05-09T14:16:42.012Z,37.42
2024-05-09T14:19:12.134Z,36.81
2024-05-09T14:21:42.027Z,36.87
2024-05-09T14:24:11.776Z,37.35
2024-05-09T14:26:41.928Z,37.59
2024-05-09T14:29:12.133Z,37.53
2024-05-09T14:31:42.594Z,37.43
2024-05-09T14:34:12.668Z,37.27
2024-05-09T14:36:42.782Z,37.09
2024-05-09T14:39:12.635Z,37.48
2024-05-09T14:41:42.703Z,37.36
2024-05-09T14:44:14.164Z,37.36
2024-05-09T14:46:44.058Z,37.99
2024-05-09T14:49:13.966Z,37.60
2024-05-09T14:51:45.626Z,37.36
2024-05-09T14:54:15.438Z,37.45
2024-05-09T14:56:45.195Z,38.17
2024-05-09T14:59:14.926Z,37.82
2024-05-09T15:01:44.782Z,37.94
2024-05-09T15:04:14.865Z,38.03
2024-05-09T15:06:45.607Z,38.08
2024-05-09T15:09:16.115Z,38.04
2024-05-09T15:11:47.792Z,38.25
2024-05-09T15:14:18.083Z,38.35
2024-05-09T15:16:50.154Z,38.46
2024-05-09T15:19:20.598Z,38.20
2024-05-09T15:21:51.185Z,38.17
2024-05-09T15:24:21.489Z,38.61
2024-05-09T15:26:51.484Z,38.43
2024-05-09T15:29:21.472Z,38.39
2024-05-09T15:31:51.252Z,38.97
2024-05-09T15:34:21.128Z,39.02
2024-05-09T15:36:52.696Z,38.66
2024-05-09T15:39:22.531Z,39.28
2024-05-09T15:41:54.530Z,38.93
2024-05-09T15:44:24.440Z,38.71
2024-05-09T15:46:57.815Z,38.98
2024-05-09T15:49:27.662Z,39.11
2024-05-09T15:51:57.576Z,39.10
2024-05-09T15:54:27.325Z,39.18
2024-05-09T15:56:57.515Z,39.16
2024-05-09T15:59:27.229Z,39.50
2024-05-09T16:01:58.537Z,39.38
2024-05-09T16:04:28.729Z,39.67
2024-05-09T16:06:58.762Z,39.77
2024-05-09T16:09:28.704Z,39.70
2024-05-09T16:11:58.642Z,39.18
2024-05-09T16:14:28.585Z,39.63
2024-05-09T16:16:58.870Z,39.59
2024-05-09T16:19:28.620Z,39.60
2024-05-09T16:21:59.797Z,39.70
2024-05-09T16:24:29.708Z,39.89
2024-05-09T16:26:59.884Z,39.58
2024-05-09T16:29:29.671Z,39.62
2024-05-09T16:31:59.588Z,39.72
2024-05-09T16:34:30.338Z,39.93
2024-05-09T16:37:00.214Z,39.45
2024-05-09T16:39:30.072Z,40.01
2024-05-09T16:42:00.302Z,39.54
2024-05-09T16:44:31.930Z,39.57
2024-05-09T16:47:03.348Z,40.22
2024-05-09T16:49:33.223Z,40.08
2024-05-09T16:52:03.063Z,39.77
2024-05-09T16:54:32.966Z,40.21
2024-05-09T16:57:02.715Z,40.37
2024-05-09T16:59:32.477Z,39.89
2024-05-09T17:02:02.425Z,40.16
2024-05-09T17:04:32.383Z,40.17
2024-05-09T17:07:02.327Z,39.98
2024-05-09T17:09:32.175Z,39.91
2024-05-09T17:12:01.941Z,39.92
2024-05-09T17:14:31.794Z,40.13
2024-05-09T17:17:01.696Z,40.19
2024-05-09T17:19:32.060Z,40.39
2024-05-09T17:22:01.922Z,40.58
2024-05-09T17:24:32.081Z,40.31
2024-05-09T17:27:02.949Z,40.61
2024-05-09T17:29:33.433Z,40.13
2024-05-09T17:32:03.330Z,40.55
2024-05-09T17:34:33.379Z,40.66
2024-05-09T17:37:03.289Z,40.32
2024-05-09T17:39:33.227Z,40.23
2024-05-09T17:42:03.051Z,40.28
2024-05-09T17:44:32.804Z,40.26
2024-05-09T17:47:02.637Z,40.32
2024-05-09T17:49:32.628Z,40.27
2024-05-09T17:52:02.515Z,40.12
2024-05-09T17:54:32.288Z,40.62
2024-05-09T17:57:02.077Z,40.73
2024-05-09T17:59:31.820Z,40.74
2024-05-09T18:02:01.772Z,40.33
2024-05-09T18:04:33.455Z,40.41
2024-05-09T18:07:03.644Z,40.55
2024-05-09T18:09:33.465Z,40.79
2024-05-09T18:12:03.471Z,40.65
2024-05-09T18:14:33.257Z,40.37
2024-05-09T18:17:03.758Z,40.65
2024-05-09T18:19:33.751Z,40.59
2024-05-09T18:22:04.725Z,40.80
2024-05-09T18:24:35.093Z,40.60
2024-05-09T18:27:05.539Z,40.59
2024-05-09T18:29:35.934Z,40.35
2024-05-09T18:32:06.304Z,40.52
2024-05-09T18:34:36.097Z,40.41
2024-05-09T18:37:05.911Z,40.39
2024-05-09T18:39:35.745Z,40.42
2024-05-09T18:42:05.556Z,40.39
2024-05-09T18:44:35.232Z,40.30
2024-05-09T18:47:06.112Z,40.75
2024-05-09T18:49:36.049Z,40.81
2024-05-09T18:52:06.023Z,40.30
2024-05-09T18:54:35.849Z,40.25
2024-05-09T18:57:05.689Z,40.60
2024-05-09T18:59:35.451Z,40.64
2024-05-09T19:02:05.404Z,40.40
2024-05-09T19:04:35.329Z,40.81
2024-05-09T19:07:05.878Z,40.33
2024-05-09T19:09:36.963Z,40.89
2024-05-09T19:12:08.117Z,40.40
2024-05-09T19:14:37.890Z,40.82
2024-05-09T19:17:08.087Z,40.69
2024-05-09T19:19:38.556Z,40.80
2024-05-09T19:22:11.968Z,40.60
2024-05-09T19:24:42.559Z,40.22
2024-05-09T19:27:12.606Z,40.70
2024-05-09T19:29:42.700Z,40.76
2024-05-09T19:32:12.631Z,40.98
2024-05-09T19:34:42.384Z,40.81
2024-05-09T19:39:41.367Z,40.37
2024-05-09T19:42:11.194Z,40.95
2024-05-09T19:47:10.069Z,40.58
2024-05-09T19:49:39.953Z,40.95
2024-05-09T19:52:09.974Z,40.77
2024-05-09T19:54:39.827Z,40.66
2024-05-09T19:57:09.612Z,40.79
2024-05-09T19:59:39.689Z,40.90
2024-05-09T20:02:10.140Z,40.82
2024-05-09T20:04:40.026Z,40.92
2024-05-09T20:07:10.129Z,40.64
2024-05-09T20:09:40.413Z,40.92
2024-05-09T20:12:11.259Z,41.14
2024-05-09T20:14:41.068Z,41.06
2024-05-09T20:17:10.987Z,40.92
2024-05-09T20:19:40.849Z,41.13
2024-05-09T20:22:10.939Z,41.26
2024-05-09T20:24:40.915Z,40.90
2024-05-09T20:27:10.757Z,41.20
2024-05-09T20:29:40.764Z,41.31
2024-05-09T20:32:10.658Z,41.48
2024-05-09T20:34:40.532Z,41.31
2024-05-09T20:37:11.053Z,41.23
2024-05-09T20:39:41.004Z,41.61
2024-05-09T20:42:10.803Z,41.57
2024-05-09T20:44:40.561Z,41.45
2024-05-09T20:47:11.234Z,41.53
2024-05-09T20:49:41.061Z,41.64
2024-05-09T20:52:10.936Z,41.59
2024-05-09T20:54:40.849Z,41.70
2024-05-09T20:57:10.591Z,41.75
2024-05-09T20:59:41.013Z,42.08
2024-05-09T21:02:10.870Z,42.24
2024-05-09T21:04:40.978Z,42.12
2024-05-09T21:07:11.164Z,42.38
2024-05-09T21:09:41.320Z,42.27
2024-05-09T21:12:11.336Z,42.48
2024-05-09T21:14:41.158Z,42.63
2024-05-09T21:17:10.967Z,42.58
2024-05-09T21:19:40.965Z,42.59
2024-05-09T21:22:10.714Z,42.63
2024-05-09T21:24:41.161Z,42.48
2024-05-09T21:27:11.393Z,42.64
2024-05-09T21:29:41.240Z,42.60
2024-05-09T21:32:11.074Z,42.56
2024-05-09T21:34:40.918Z,42.48
2024-05-09T21:37:11.035Z,42.64
2024-05-09T21:39:40.918Z,42.62
2024-05-09T21:42:10.728Z,42.71
2024-05-09T21:44:40.487Z,42.60
2024-05-09T21:47:10.282Z,42.63
2024-05-09T21:49:40.189Z,42.89
2024-05-09T21:52:10.924Z,42.60
2024-05-09T21:54:40.998Z,42.86
2024-05-09T21:57:11.621Z,42.54
2024-05-09T21:59:43.161Z,42.91
2024-05-09T22:02:13.762Z,42.66
2024-05-09T22:04:44.059Z,42.67
2024-05-09T22:07:14.196Z,42.49
2024-05-09T22:09:46.868Z,42.57
2024-05-09T22:12:16.709Z,42.28
2024-05-09T22:14:46.447Z,42.18
2024-05-09T22:17:16.216Z,42.50
2024-05-09T22:19:51.218Z,42.26
2024-05-09T22:22:22.354Z,42.13
2024-05-09T22:24:53.396Z,42.06
2024-05-09T22:27:23.820Z,41.98
2024-05-09T22:29:53.725Z,42.12
2024-05-09T22:32:23.548Z,42.10
2024-05-09T22:34:53.417Z,41.98
2024-05-09T22:37:23.221Z,41.65
2024-05-09T22:39:53.141Z,41.31
2024-05-09T22:42:22.985Z,41.38
2024-05-09T22:44:52.768Z,41.19
2024-05-09T22:47:23.153Z,40.72
2024-05-09T22:49:53.416Z,40.96
2024-05-09T22:52:23.443Z,40.56
2024-05-09T22:54:53.317Z,40.26
2024-05-09T22:57:23.290Z,40.02
2024-05-09T22:59:53.068Z,40.44
2024-05-09T23:02:22.931Z,40.23
2024-05-09T23:04:52.874Z,39.71
2024-05-09T23:07:23.143Z,39.77
2024-05-09T23:09:53.937Z,39.58
2024-05-09T23:12:24.366Z,39.19
2024-05-09T23:14:54.127Z,39.92
2024-05-09T23:17:23.952Z,38.91
2024-05-09T23:19:53.736Z,39.26
2024-05-09T23:22:23.512Z,39.14
2024-05-09T23:24:53.953Z,38.79
2024-05-09T23:27:23.773Z,38.99
2024-05-09T23:29:53.565Z,38.99
2024-05-09T23:32:23.609Z,38.68
2024-05-09T23:34:53.452Z,38.75
2024-05-09T23:37:23.788Z,38.41
2024-05-09T23:39:53.640Z,38.30
2024-05-09T23:42:23.430Z,38.90
2024-05-09T23:44:55.354Z,38.67
2024-05-09T23:47:25.426Z,38.78
2024-05-09T23:49:55.215Z,39.06
2024-05-09T23:52:25.077Z,38.36
2024-05-09T23:54:55.059Z,38.13
2024-05-09T23:57:25.181Z,38.65
2024-05-09T23:59:55.431Z,38.65
